createdAt,value
2023-03-29T00:00:21.604Z,12.6
2023-03-29T00:02:21.395Z,15.7
2023-03-29T00:04:21.125Z,14.5
2023-03-29T00:06:21.122Z,13.5
2023-03-29T00:08:21.123Z,13.5
2023-03-29T00:10:22.061Z,14.7
2023-03-29T00:12:21.140Z,12.6
2023-03-29T00:14:21.169Z,14.1
2023-03-29T00:16:21.563Z,15.7
2023-03-29T00:18:21.979Z,13.7
2023-03-29T00:20:21.232Z,13.8
2023-03-29T00:22:21.307Z,14.9
2023-03-29T00:24:21.615Z,13.9
2023-03-29T00:26:21.273Z,13.5
2023-03-29T00:28:21.986Z,13
2023-03-29T00:30:21.304Z,15.2
2023-03-29T00:32:21.716Z,12.3
2023-03-29T00:34:22.116Z,13.8
2023-03-29T00:36:21.317Z,16.1
2023-03-29T00:38:21.365Z,16
2023-03-29T00:40:21.350Z,14.1
2023-03-29T00:42:22.773Z,13.8
2023-03-29T00:44:50.751Z,15.2
2023-03-29T00:46:22.459Z,16.4
2023-03-29T00:48:25.642Z,14
2023-03-29T00:50:27.093Z,12.4
2023-03-29T00:52:21.855Z,17
2023-03-29T00:54:21.538Z,16
2023-03-29T00:56:24.876Z,14.9
2023-03-29T00:58:25.802Z,14.8
2023-03-29T01:00:27.538Z,16.4
2023-03-29T01:02:25.119Z,15.2
2023-03-29T01:04:28.328Z,16.7
2023-03-29T01:06:25.780Z,20.7
2023-03-29T01:08:25.743Z,17.2
2023-03-29T01:10:29.079Z,15.3
2023-03-29T01:12:27.204Z,15.8
2023-03-29T01:14:28.439Z,16
2023-03-29T01:16:23.530Z,17.5
2023-03-29T01:18:21.672Z,16.8
2023-03-29T01:20:33.466Z,19.1
2023-03-29T01:22:32.719Z,16.1
2023-03-29T01:24:35.892Z,17.9
2023-03-29T01:26:30.670Z,17.6
2023-03-29T01:28:26.285Z,18.5
2023-03-29T01:30:26.908Z,16.8
2023-03-29T01:32:26.670Z,15.7
2023-03-29T01:34:25.554Z,16.6
2023-03-29T01:36:26.779Z,18.2
2023-03-29T01:38:26.684Z,19.2
2023-03-29T01:40:21.833Z,17.7
2023-03-29T01:42:33.256Z,18.6
2023-03-29T01:44:29.643Z,17.3
2023-03-29T01:46:31.079Z,19.6
2023-03-29T01:48:28.613Z,15.8
2023-03-29T01:50:36.121Z,16.3
2023-03-29T01:52:26.661Z,15.8
2023-03-29T01:54:25.363Z,16.5
2023-03-29T01:56:25.965Z,15.6
2023-03-29T01:58:25.510Z,16.3
2023-03-29T02:00:25.577Z,15.9
2023-03-29T02:02:28.640Z,14.2
2023-03-29T02:04:26.938Z,17.7
2023-03-29T02:06:25.349Z,13.4
2023-03-29T02:08:22.458Z,14.7
2023-03-29T02:10:23.140Z,18.2
2023-03-29T02:12:22.122Z,15.4
2023-03-29T02:14:21.981Z,15.4
2023-03-29T02:16:22.061Z,15.7
2023-03-29T02:18:22.018Z,14.6
2023-03-29T02:20:25.765Z,15.2
2023-03-29T02:22:27.489Z,17.3
2023-03-29T02:24:23.762Z,14.6
2023-03-29T02:26:22.420Z,16.9
2023-03-29T02:28:25.324Z,15.3
2023-03-29T02:30:23.775Z,14.4
2023-03-29T02:32:31.373Z,13.9
2023-03-29T02:34:25.643Z,14.2
2023-03-29T02:36:27.079Z,17.2
2023-03-29T02:38:24.812Z,17.1
2023-03-29T02:40:23.775Z,15.5
2023-03-29T02:42:22.700Z,14.3
2023-03-29T02:44:25.275Z,13
2023-03-29T02:46:22.970Z,15.1
2023-03-29T02:48:26.040Z,14.7
2023-03-29T02:50:24.457Z,14
2023-03-29T02:52:25.611Z,15.4
2023-03-29T02:54:24.806Z,12.4
2023-03-29T02:56:22.480Z,15.2
2023-03-29T02:58:21.900Z,14.4
2023-03-29T03:00:22.049Z,17.9
2023-03-29T03:02:22.437Z,14.2
2023-03-29T03:04:22.173Z,14.8
2023-03-29T03:06:22.413Z,13.4
2023-03-29T03:08:22.250Z,15.4
2023-03-29T03:10:21.963Z,13.5
2023-03-29T03:12:22.035Z,13.4
2023-03-29T03:14:21.956Z,15.2
2023-03-29T03:16:22.126Z,14
2023-03-29T03:18:22.100Z,14.6
2023-03-29T03:20:21.945Z,15.1
2023-03-29T03:22:21.941Z,15
2023-03-29T03:24:22.267Z,13.9
2023-03-29T03:26:23.025Z,12.4
2023-03-29T03:28:22.864Z,16.7
2023-03-29T03:30:22.923Z,9.8
2023-03-29T03:32:21.915Z,13.3
2023-03-29T03:34:29.217Z,13.8
2023-03-29T03:36:22.085Z,10.8
2023-03-29T03:38:27.403Z,10.7
2023-03-29T03:40:22.387Z,12.3
2023-03-29T03:42:22.320Z,10.2
2023-03-29T03:44:28.676Z,11.2
2023-03-29T03:46:24.138Z,10
2023-03-29T03:48:28.287Z,10.2
2023-03-29T03:50:22.045Z,8.9
2023-03-29T03:52:22.112Z,11.7
2023-03-29T03:54:37.837Z,9.7
2023-03-29T03:56:36.446Z,9.4
2023-03-29T03:58:22.482Z,10
2023-03-29T04:00:28.038Z,8.9
2023-03-29T04:02:22.369Z,10.9
2023-03-29T04:04:31.044Z,13.3
2023-03-29T04:06:37.902Z,9.5
2023-03-29T04:08:36.806Z,9.8
2023-03-29T04:10:31.019Z,11
2023-03-29T04:12:23.324Z,9.4
2023-03-29T04:14:25.692Z,10.1
2023-03-29T04:16:22.812Z,8.3
2023-03-29T04:18:27.238Z,8.7
2023-03-29T04:20:22.480Z,9.1
2023-03-29T04:22:22.520Z,7.1
2023-03-29T04:24:37.860Z,8.9
2023-03-29T04:26:25.673Z,7.4
2023-03-29T04:28:25.924Z,8.4
2023-03-29T04:30:37.792Z,11
2023-03-29T04:32:33.791Z,12.4
2023-03-29T04:34:22.977Z,7.9
2023-03-29T04:36:22.988Z,6.9
2023-03-29T04:38:22.638Z,9.3
2023-03-29T04:40:30.474Z,10
2023-03-29T04:42:22.527Z,9.9
2023-03-29T04:44:22.720Z,7.1
2023-03-29T04:46:37.092Z,7.3
2023-03-29T04:48:23.108Z,8.1
2023-03-29T04:50:22.515Z,7.4
2023-03-29T04:52:24.505Z,10.2
2023-03-29T04:54:34.501Z,6.3
2023-03-29T04:56:44.586Z,9.6
2023-03-29T04:58:24.414Z,8.8
2023-03-29T05:00:30.324Z,9.3
2023-03-29T05:02:23.458Z,7.8
2023-03-29T05:04:34.666Z,10.6
2023-03-29T05:06:22.722Z,8.1
2023-03-29T05:08:37.551Z,8.8
2023-03-29T05:10:23.726Z,9.6
2023-03-29T05:12:25.927Z,6.9
2023-03-29T05:14:24.017Z,8.6
2023-03-29T05:16:23.104Z,11.9
2023-03-29T05:18:22.791Z,7.8
2023-03-29T05:20:23.257Z,7.5
2023-03-29T05:22:23.927Z,8.4
2023-03-29T05:24:30.849Z,8.7
2023-03-29T05:26:25.763Z,7.5
2023-03-29T05:28:23.109Z,7
2023-03-29T05:30:28.641Z,6.3
2023-03-29T05:32:23.113Z,12
2023-03-29T05:34:25.956Z,6.8
2023-03-29T05:36:23.676Z,5.2
2023-03-29T05:38:24.909Z,7.4
2023-03-29T05:40:41.430Z,5.8
2023-03-29T05:42:34.120Z,6.6
2023-03-29T05:44:29.070Z,7.7
2023-03-29T05:46:25.694Z,9.7
2023-03-29T05:48:24.384Z,7.7
2023-03-29T05:50:23.559Z,7.2
2023-03-29T05:52:24.417Z,5.6
2023-03-29T05:54:23.862Z,12.8
2023-03-29T05:56:23.428Z,10.6
2023-03-29T05:58:23.456Z,5.4
2023-03-29T06:00:25.753Z,9.9
2023-03-29T06:02:25.816Z,9.3
2023-03-29T06:04:33.342Z,6.1
2023-03-29T06:06:23.837Z,7.4
2023-03-29T06:08:39.469Z,7.3
2023-03-29T06:10:28.125Z,6.7
2023-03-29T06:12:30.282Z,7.8
2023-03-29T06:14:28.718Z,8
2023-03-29T06:16:24.905Z,6.8
2023-03-29T06:18:24.747Z,8
2023-03-29T06:20:27.679Z,5.8
2023-03-29T06:22:24.456Z,6.4
2023-03-29T06:24:28.575Z,7.1
2023-03-29T06:26:24.776Z,7.6
2023-03-29T06:28:24.676Z,8.9
2023-03-29T06:30:26.863Z,7.9
2023-03-29T06:32:30.829Z,6.5
2023-03-29T06:34:37.242Z,6.7
2023-03-29T06:36:25.173Z,10.6
2023-03-29T06:38:35.585Z,7
2023-03-29T06:40:24.984Z,9.1
2023-03-29T06:42:47.441Z,11.1
2023-03-29T06:44:32.244Z,11.8
2023-03-29T06:46:30.120Z,10.9
2023-03-29T06:48:25.313Z,6.8
2023-03-29T06:50:40.669Z,6.1
2023-03-29T06:52:25.929Z,7.5
2023-03-29T06:54:32.928Z,13.6
2023-03-29T06:56:32.866Z,10
2023-03-29T06:58:26.408Z,9.7
2023-03-29T07:00:41.030Z,6.2
2023-03-29T07:02:36.440Z,8.4
2023-03-29T07:04:44.120Z,9.2
2023-03-29T07:06:26.210Z,9.1
2023-03-29T07:08:30.567Z,5.8
2023-03-29T07:10:43.917Z,8.4
2023-03-29T07:12:29.336Z,5.8
2023-03-29T07:14:27.379Z,8
2023-03-29T07:16:31.928Z,16.1
2023-03-29T07:18:26.810Z,11.4
2023-03-29T07:20:41.869Z,8
2023-03-29T07:22:30.190Z,9.1
2023-03-29T07:24:27.558Z,8.3
2023-03-29T07:26:28.705Z,6.2
2023-03-29T07:28:27.767Z,7.5
2023-03-29T07:30:38.343Z,6.6
2023-03-29T07:32:40.800Z,9.6
2023-03-29T07:34:27.849Z,6.5
2023-03-29T07:36:28.056Z,5.6
2023-03-29T07:38:33.022Z,7.5
2023-03-29T07:40:31.334Z,8.9
2023-03-29T07:42:29.280Z,10.2
2023-03-29T07:44:28.677Z,9.6
2023-03-29T07:46:28.452Z,11.6
2023-03-29T07:48:33.458Z,6.2
2023-03-29T07:50:31.136Z,8.3
2023-03-29T07:52:29.016Z,10.1
2023-03-29T07:54:43.800Z,5.5
2023-03-29T07:56:45.543Z,5
2023-03-29T07:58:29.047Z,12.4
2023-03-29T08:00:51.270Z,14.4
2023-03-29T08:02:31.072Z,14.2
2023-03-29T08:04:44.408Z,8.3
2023-03-29T08:06:29.551Z,15.3
2023-03-29T08:08:34.345Z,8
2023-03-29T08:10:40.695Z,8.1
2023-03-29T08:12:31.918Z,7.5
2023-03-29T08:14:35.934Z,13.4
2023-03-29T08:16:37.731Z,11
2023-03-29T08:18:32.764Z,6.6
2023-03-29T08:20:34.208Z,6.3
2023-03-29T08:22:40.313Z,7.6
2023-03-29T08:24:34.257Z,12.9
2023-03-29T08:26:31.962Z,11.1
2023-03-29T08:28:30.797Z,8
2023-03-29T08:30:31.338Z,10.8
2023-03-29T08:32:31.787Z,10.4
2023-03-29T08:34:46.286Z,7.1
2023-03-29T08:36:34.150Z,6.6
2023-03-29T08:38:31.415Z,11.3
2023-03-29T08:40:32.479Z,11.5
2023-03-29T08:42:48.040Z,11.5
2023-03-29T08:44:50.350Z,11.6
2023-03-29T08:46:50.176Z,10.1
2023-03-29T08:48:38.029Z,11.3
2023-03-29T08:50:35.286Z,12.1
2023-03-29T08:52:44.962Z,14.2
2023-03-29T08:54:43.923Z,12.6
2023-03-29T08:56:37.352Z,13.9
2023-03-29T08:58:34.884Z,10.9
2023-03-29T09:00:36.935Z,9.8
2023-03-29T09:02:36.179Z,17.3
2023-03-29T09:04:41.793Z,7.5
2023-03-29T09:06:44.516Z,12.2
2023-03-29T09:08:38.615Z,7.9
2023-03-29T09:10:42.286Z,14.7
2023-03-29T09:12:46.371Z,11.5
2023-03-29T09:14:47.500Z,8.6
2023-03-29T09:16:37.785Z,10.1
2023-03-29T09:18:46.230Z,11.6
2023-03-29T09:20:44.452Z,11.7
2023-03-29T09:22:41.392Z,9.5
2023-03-29T09:24:50.250Z,14.6
2023-03-29T09:26:47.880Z,11.6
2023-03-29T09:28:38.219Z,11.3
2023-03-29T09:30:40.513Z,8.9
2023-03-29T09:32:42.602Z,12.2
2023-03-29T09:34:47.672Z,20.1
2023-03-29T09:36:45.144Z,9.4
2023-03-29T09:38:39.130Z,9
2023-03-29T09:40:48.908Z,11.8
2023-03-29T09:42:37.558Z,10.7
2023-03-29T09:44:43.602Z,20.8
2023-03-29T09:46:40.076Z,13.2
2023-03-29T09:48:39.056Z,14.1
2023-03-29T09:50:40.804Z,9
2023-03-29T09:52:41.642Z,15.1
2023-03-29T09:54:50.555Z,10.7
2023-03-29T09:56:41.887Z,13.3
2023-03-29T09:58:37.012Z,12.9
2023-03-29T10:00:36.071Z,9.6
2023-03-29T10:02:37.042Z,10.2
2023-03-29T10:04:36.421Z,12
2023-03-29T10:06:41.157Z,7.5
2023-03-29T10:08:39.821Z,12.5
2023-03-29T10:10:36.702Z,9.1
2023-03-29T10:12:37.136Z,8.7
2023-03-29T10:14:40.679Z,9.7
2023-03-29T10:16:39.540Z,14.6
2023-03-29T10:18:41.863Z,10.3
2023-03-29T10:20:39.310Z,12.5
2023-03-29T10:22:38.069Z,12.5
2023-03-29T10:24:37.413Z,12.4
2023-03-29T10:26:37.934Z,12.4
2023-03-29T10:28:38.137Z,19.2
2023-03-29T10:30:39.630Z,11.6
2023-03-29T10:32:39.354Z,13.3
2023-03-29T10:34:38.542Z,14.3
2023-03-29T10:36:40.723Z,11.1
2023-03-29T10:38:38.473Z,10.1
2023-03-29T10:40:43.402Z,17.7
2023-03-29T10:42:46.274Z,9.7
2023-03-29T10:44:39.356Z,10.9
2023-03-29T10:46:42.269Z,10.6
2023-03-29T10:48:44.737Z,12.9
2023-03-29T10:50:39.348Z,13.5
2023-03-29T10:52:39.652Z,12.8
2023-03-29T10:54:39.400Z,13.6
2023-03-29T10:56:41.725Z,10.5
2023-03-29T10:58:56.063Z,10.5
2023-03-29T11:00:47.838Z,10
2023-03-29T11:03:01.651Z,16
2023-03-29T11:04:44.955Z,7.5
2023-03-29T11:06:46.820Z,10.7
2023-03-29T11:08:50.431Z,10.3
2023-03-29T11:10:51.630Z,11
2023-03-29T11:12:48.932Z,10.2
2023-03-29T11:14:52.187Z,11.4
2023-03-29T11:16:50.668Z,8.8
2023-03-29T11:18:59.219Z,10.9
2023-03-29T11:20:45.274Z,14.3
2023-03-29T11:22:48.466Z,11.5
2023-03-29T11:24:56.009Z,12.5
2023-03-29T11:26:53.179Z,13.5
2023-03-29T11:28:49.216Z,15.1
2023-03-29T11:30:46.688Z,14.8
2023-03-29T11:32:52.058Z,14.2
2023-03-29T11:34:57.703Z,8.8
2023-03-29T11:36:52.010Z,7.9
2023-03-29T11:38:53.755Z,10.6
2023-03-29T11:40:52.354Z,8.9
2023-03-29T11:42:46.186Z,10.7
2023-03-29T11:44:46.537Z,7.4
2023-03-29T11:46:49.342Z,8.9
2023-03-29T11:48:49.937Z,9.1
2023-03-29T11:50:50.365Z,8.2
2023-03-29T11:52:48.303Z,12.1
2023-03-29T11:54:47.897Z,12.2
2023-03-29T11:56:46.915Z,9.9
2023-03-29T11:58:48.691Z,8.4
2023-03-29T12:00:47.808Z,12
2023-03-29T12:02:49.780Z,10.5
2023-03-29T12:04:49.281Z,9.9
2023-03-29T12:06:49.865Z,13.8
2023-03-29T12:08:51.968Z,10.7
2023-03-29T12:10:49.189Z,13.2
2023-03-29T12:12:49.934Z,11
2023-03-29T12:14:55.651Z,8.4
2023-03-29T12:16:48.950Z,11.4
2023-03-29T12:18:47.847Z,11.7
2023-03-29T12:20:49.195Z,10.7
2023-03-29T12:22:47.550Z,9.8
2023-03-29T12:24:49.887Z,10.5
2023-03-29T12:27:00.574Z,10.7
2023-03-29T12:29:00.672Z,13.1
2023-03-29T12:30:55.308Z,14.9
2023-03-29T12:33:16.268Z,19.6
2023-03-29T12:35:19.703Z,18
2023-03-29T12:37:14.642Z,10
2023-03-29T12:39:00.898Z,12
2023-03-29T12:41:03.092Z,7.5
2023-03-29T12:43:02.364Z,7.9
2023-03-29T12:45:00.262Z,9.5
2023-03-29T12:46:46.278Z,8.1
2023-03-29T12:48:50.559Z,13.8
2023-03-29T12:50:49.989Z,7.7
2023-03-29T12:52:46.397Z,7.5
2023-03-29T12:54:53.573Z,7.3
2023-03-29T12:56:56.568Z,10.3
2023-03-29T12:59:06.171Z,11.2
2023-03-29T13:00:47.127Z,10.2
2023-03-29T13:02:59.746Z,7.5
2023-03-29T13:04:51.090Z,19.4
2023-03-29T13:07:01.979Z,8.1
2023-03-29T13:08:57.977Z,12.4
2023-03-29T13:10:53.459Z,9.2
2023-03-29T13:12:47.804Z,10
2023-03-29T13:14:51.734Z,12.8
2023-03-29T13:16:47.854Z,9.6
2023-03-29T13:18:59.800Z,13
2023-03-29T13:20:59.795Z,10.6
2023-03-29T13:23:00.231Z,11.4
2023-03-29T13:25:03.855Z,12.6
2023-03-29T13:26:57.885Z,10.4
2023-03-29T13:29:07.945Z,10.1
2023-03-29T13:30:56.951Z,9.7
2023-03-29T13:32:54.851Z,6.2
2023-03-29T13:34:56.904Z,8
2023-03-29T13:37:01.798Z,10.4
2023-03-29T13:38:52.487Z,9.8
2023-03-29T13:41:04.253Z,9.3
2023-03-29T13:42:57.861Z,7.7
2023-03-29T13:44:49.520Z,9
2023-03-29T13:47:01.903Z,14.9
2023-03-29T13:48:55.742Z,11.9
2023-03-29T13:50:54.734Z,27.5
2023-03-29T13:52:58.943Z,10
2023-03-29T13:54:54.030Z,13.2
2023-03-29T13:57:00.530Z,11.6
2023-03-29T13:58:53.291Z,8.6
2023-03-29T14:00:55.147Z,12.7
2023-03-29T14:02:53.364Z,11.9
2023-03-29T14:04:51.739Z,8.1
2023-03-29T14:06:53.272Z,12.7
2023-03-29T14:08:52.190Z,15.7
2023-03-29T14:10:52.328Z,8.5
2023-03-29T14:12:52.014Z,12.4
2023-03-29T14:14:59.201Z,8.3
2023-03-29T14:16:53.318Z,6.6
2023-03-29T14:18:51.341Z,12.3
2023-03-29T14:20:53.913Z,8
2023-03-29T14:22:52.226Z,7.5
2023-03-29T14:24:53.836Z,7
2023-03-29T14:26:53.458Z,10.4
2023-03-29T14:28:53.636Z,10.6
2023-03-29T14:30:52.855Z,6
2023-03-29T14:32:52.031Z,10.4
2023-03-29T14:34:52.147Z,6.8
2023-03-29T14:36:52.854Z,6.5
2023-03-29T14:38:56.010Z,10.6
2023-03-29T14:40:54.129Z,5.9
2023-03-29T14:42:52.965Z,7.3
2023-03-29T14:44:57.657Z,6.3
2023-03-29T14:46:53.698Z,8.2
2023-03-29T14:48:53.214Z,7
2023-03-29T14:50:53.106Z,8.7
2023-03-29T14:52:55.574Z,5.8
2023-03-29T14:54:55.336Z,8.5
2023-03-29T14:56:54.045Z,9.4
2023-03-29T14:58:54.851Z,8.1
2023-03-29T15:00:53.892Z,11.7
2023-03-29T15:02:56.487Z,8.5
2023-03-29T15:04:56.954Z,9.2
2023-03-29T15:06:53.551Z,7.2
2023-03-29T15:09:05.235Z,8.4
2023-03-29T15:10:53.748Z,7.5
2023-03-29T15:12:55.223Z,8.4
2023-03-29T15:14:54.368Z,6.6
2023-03-29T15:17:01.009Z,10.3
2023-03-29T15:18:53.946Z,9.5
2023-03-29T15:20:54.135Z,8.6
2023-03-29T15:22:58.581Z,5.6
2023-03-29T15:24:58.170Z,5.5
2023-03-29T15:26:59.337Z,11.1
2023-03-29T15:29:01.634Z,10.6
2023-03-29T15:31:07.337Z,9.9
2023-03-29T15:32:54.463Z,10.5
2023-03-29T15:35:00.340Z,8.9
2023-03-29T15:36:55.166Z,8.5
2023-03-29T15:38:54.702Z,15.6
2023-03-29T15:40:54.937Z,10.9
2023-03-29T15:42:54.873Z,7
2023-03-29T15:44:55.673Z,8.1
2023-03-29T15:46:56.027Z,11.6
2023-03-29T15:48:55.126Z,9.3
2023-03-29T15:50:55.169Z,6.1
2023-03-29T15:52:57.933Z,7.3
2023-03-29T15:54:55.154Z,8.4
2023-03-29T15:57:00.116Z,9.3
2023-03-29T15:58:55.315Z,8.3
2023-03-29T16:00:59.529Z,8.4
2023-03-29T16:02:55.439Z,9.1
2023-03-29T16:04:55.423Z,10.4
2023-03-29T16:06:55.532Z,6.5
2023-03-29T16:08:57.309Z,8.9
2023-03-29T16:10:55.584Z,8.9
2023-03-29T16:12:55.715Z,7.2
2023-03-29T16:14:55.643Z,10.4
2023-03-29T16:16:57.351Z,8
2023-03-29T16:18:55.704Z,11.7
2023-03-29T16:20:55.953Z,6.6
2023-03-29T16:22:56.069Z,6.5
2023-03-29T16:24:55.978Z,7.7
2023-03-29T16:26:56.580Z,6.3
2023-03-29T16:28:56.052Z,8.1
2023-03-29T16:30:56.122Z,7
2023-03-29T16:32:56.204Z,7.3
2023-03-29T16:34:56.385Z,7.3
2023-03-29T16:36:56.238Z,6.8
2023-03-29T16:38:56.249Z,7.9
2023-03-29T16:40:56.161Z,7.4
2023-03-29T16:42:56.350Z,7.8
2023-03-29T16:44:55.965Z,6.2
2023-03-29T16:46:56.284Z,7.1
2023-03-29T16:48:56.370Z,8.6
2023-03-29T16:50:56.273Z,6.1
2023-03-29T16:52:56.347Z,8.6
2023-03-29T16:54:56.634Z,8
2023-03-29T16:56:56.374Z,7.1
2023-03-29T16:58:56.179Z,6.2
2023-03-29T17:00:56.399Z,8.6
2023-03-29T17:02:56.409Z,8.6
2023-03-29T17:04:56.494Z,9
2023-03-29T17:06:56.314Z,7.3
2023-03-29T17:08:56.256Z,10.7
2023-03-29T17:10:56.565Z,7.5
2023-03-29T17:12:56.430Z,6.3
2023-03-29T17:14:56.250Z,7.4
2023-03-29T17:16:56.542Z,6.9
2023-03-29T17:18:57.534Z,12.1
2023-03-29T17:20:57.990Z,7.4
2023-03-29T17:22:56.404Z,5.9
2023-03-29T17:24:56.360Z,7.2
2023-03-29T17:26:56.384Z,6.4
2023-03-29T17:28:56.440Z,6.7
2023-03-29T17:30:56.840Z,6.7
2023-03-29T17:32:56.826Z,6.9
2023-03-29T17:34:56.431Z,5.6
2023-03-29T17:36:56.544Z,7.3
2023-03-29T17:38:56.962Z,6.9
2023-03-29T17:40:56.642Z,5.6
2023-03-29T17:42:56.534Z,6.2
2023-03-29T17:44:56.519Z,6.8
2023-03-29T17:46:56.604Z,5.2
2023-03-29T17:48:56.424Z,6.6
2023-03-29T17:50:56.668Z,8.1
2023-03-29T17:52:56.604Z,6.4
2023-03-29T17:54:56.582Z,5.8
2023-03-29T17:56:56.588Z,8.1
2023-03-29T17:58:56.759Z,6.8
2023-03-29T18:00:56.737Z,7.1
2023-03-29T18:02:57.739Z,10.7
2023-03-29T18:04:56.822Z,7.3
2023-03-29T18:06:56.873Z,10.4
2023-03-29T18:08:56.792Z,8
2023-03-29T18:11:04.961Z,7.1
2023-03-29T18:12:57.196Z,7.4
2023-03-29T18:14:56.982Z,8.4
2023-03-29T18:16:56.956Z,10.2
2023-03-29T18:18:57.005Z,9.2
2023-03-29T18:20:56.916Z,9
2023-03-29T18:22:57.067Z,9
2023-03-29T18:24:57.385Z,8.7
2023-03-29T18:26:57.038Z,9
2023-03-29T18:28:57.120Z,11.3
2023-03-29T18:30:57.290Z,7.9
2023-03-29T18:32:57.238Z,7.4
2023-03-29T18:34:57.408Z,6.7
2023-03-29T18:36:57.360Z,9.7
2023-03-29T18:38:57.398Z,9.3
2023-03-29T18:40:57.507Z,7.1
2023-03-29T18:42:57.420Z,7.4
2023-03-29T18:44:57.666Z,6.6
2023-03-29T18:46:57.587Z,5.9
2023-03-29T18:48:58.275Z,8.2
2023-03-29T18:50:57.620Z,6.8
2023-03-29T18:52:57.659Z,6.4
2023-03-29T18:54:57.823Z,6.1
2023-03-29T18:56:59.252Z,6
2023-03-29T18:58:57.781Z,8.9
2023-03-29T19:01:00.981Z,8.5
2023-03-29T19:02:57.939Z,6.4
2023-03-29T19:04:58.104Z,5.7
2023-03-29T19:06:57.958Z,5.2
2023-03-29T19:08:58.100Z,8.4
2023-03-29T19:11:01.317Z,7.1
2023-03-29T19:12:58.146Z,4.2
2023-03-29T19:14:58.680Z,4.9
2023-03-29T19:16:58.285Z,5
2023-03-29T19:18:58.183Z,6.8
2023-03-29T19:20:58.177Z,7.6
2023-03-29T19:22:58.521Z,6.1
2023-03-29T19:24:58.322Z,5.7
2023-03-29T19:26:58.444Z,5.4
2023-03-29T19:28:58.739Z,7
2023-03-29T19:31:00.078Z,6.6
2023-03-29T19:32:58.501Z,5.6
2023-03-29T19:34:58.526Z,7
2023-03-29T19:36:58.751Z,5.6
2023-03-29T19:38:58.608Z,6.7
2023-03-29T19:40:58.646Z,5.1
2023-03-29T19:42:58.719Z,5.9
2023-03-29T19:44:58.727Z,8.9
2023-03-29T19:46:58.955Z,5.4
2023-03-29T19:48:59.103Z,9.1
2023-03-29T19:51:01.311Z,7.5
2023-03-29T19:52:58.853Z,7.1
2023-03-29T19:54:58.883Z,6.4
2023-03-29T19:56:59.301Z,7.1
2023-03-29T19:58:59.043Z,7.8
2023-03-29T20:00:58.943Z,7
2023-03-29T20:02:59.093Z,8.3
2023-03-29T20:04:59.089Z,6.5
2023-03-29T20:06:59.241Z,9.4
2023-03-29T20:08:59.238Z,7.5
2023-03-29T20:11:02.696Z,7.5
2023-03-29T20:12:59.232Z,5.9
2023-03-29T20:14:59.650Z,5.9
2023-03-29T20:16:59.530Z,5.9
2023-03-29T20:18:59.320Z,6.9
2023-03-29T20:20:59.481Z,9.7
2023-03-29T20:22:59.866Z,7.9
2023-03-29T20:24:59.465Z,6.9
2023-03-29T20:26:59.427Z,8.8
2023-03-29T20:28:59.502Z,8.3
2023-03-29T20:31:03.808Z,8.7
2023-03-29T20:32:59.875Z,12.2
2023-03-29T20:34:59.502Z,8.7
2023-03-29T20:36:59.621Z,8.4
2023-03-29T20:38:59.642Z,9.7
2023-03-29T20:40:59.639Z,9.7
2023-03-29T20:42:59.739Z,7.5
2023-03-29T20:44:59.720Z,9.5
2023-03-29T20:46:59.694Z,9.7
2023-03-29T20:49:00.028Z,10.4
2023-03-29T20:50:59.787Z,10.2
2023-03-29T20:52:59.901Z,8.1
2023-03-29T20:54:59.892Z,9
2023-03-29T20:57:00.358Z,11.2
2023-03-29T20:59:00.454Z,8.9
2023-03-29T21:00:59.942Z,8
2023-03-29T21:03:00.680Z,8.9
2023-03-29T21:05:00.029Z,9
2023-03-29T21:07:02.921Z,8.7
2023-03-29T21:09:00.163Z,9.1
2023-03-29T21:11:00.381Z,8.9
2023-03-29T21:13:00.291Z,9.3
2023-03-29T21:15:00.246Z,11.3
2023-03-29T21:17:00.394Z,7.4
2023-03-29T21:19:00.583Z,8.1
2023-03-29T21:21:00.428Z,8.9
2023-03-29T21:23:00.429Z,6.4
2023-03-29T21:25:00.367Z,8
2023-03-29T21:27:00.420Z,9.8
2023-03-29T21:29:00.496Z,6.2
2023-03-29T21:31:03.753Z,10.8
2023-03-29T21:33:00.657Z,9.1
2023-03-29T21:35:00.564Z,7.4
2023-03-29T21:37:00.507Z,6.2
2023-03-29T21:39:00.575Z,6.6
2023-03-29T21:41:00.864Z,8.2
2023-03-29T21:43:00.688Z,8.2
2023-03-29T21:45:00.946Z,5.8
2023-03-29T21:47:00.862Z,7
2023-03-29T21:49:00.645Z,7.2
2023-03-29T21:51:01.302Z,8.4
2023-03-29T21:53:01.047Z,9.3
2023-03-29T21:55:00.755Z,7
2023-03-29T21:57:00.895Z,6.8
2023-03-29T21:59:01.008Z,11.3
2023-03-29T22:01:01.074Z,6.3
2023-03-29T22:03:00.899Z,9.1
2023-03-29T22:05:00.931Z,6.8
2023-03-29T22:07:01.079Z,7.8
2023-03-29T22:09:01.297Z,9
2023-03-29T22:11:07.970Z,9.1
2023-03-29T22:13:01.116Z,10.8
2023-03-29T22:15:01.308Z,8.4
2023-03-29T22:17:01.369Z,8.5
2023-03-29T22:19:01.314Z,7.5
2023-03-29T22:21:01.438Z,7.6
2023-03-29T22:23:01.378Z,9.4
2023-03-29T22:25:01.374Z,6.9
2023-03-29T22:27:01.289Z,10.1
2023-03-29T22:29:02.330Z,8.4
2023-03-29T22:31:03.143Z,8.6
2023-03-29T22:33:01.470Z,7.4
2023-03-29T22:35:01.585Z,7.7
2023-03-29T22:37:01.359Z,8.6
2023-03-29T22:39:01.492Z,7.8
2023-03-29T22:41:01.636Z,8.1
2023-03-29T22:43:03.937Z,8.4
2023-03-29T22:45:01.628Z,6.6
2023-03-29T22:47:01.445Z,6.7
2023-03-29T22:49:01.461Z,11.1
2023-03-29T22:51:02.243Z,7.3
2023-03-29T22:53:01.434Z,6.6
2023-03-29T22:55:01.410Z,6.9
2023-03-29T22:57:01.628Z,7.1
2023-03-29T22:59:01.407Z,7.9
2023-03-29T23:01:01.636Z,7.5
2023-03-29T23:03:01.618Z,11.1
2023-03-29T23:05:01.426Z,7.7
2023-03-29T23:07:01.517Z,7.9
2023-03-29T23:09:01.665Z,6.9
2023-03-29T23:11:02.836Z,7.8
2023-03-29T23:13:01.733Z,7.2
2023-03-29T23:15:01.860Z,6.2
2023-03-29T23:17:01.513Z,7.9
2023-03-29T23:19:01.573Z,8.6
2023-03-29T23:21:02.094Z,6.9
2023-03-29T23:23:01.665Z,8.4
2023-03-29T23:25:01.589Z,6.4
2023-03-29T23:27:01.698Z,7.3
2023-03-29T23:29:01.601Z,8.2
2023-03-29T23:31:03.780Z,8.5
2023-03-29T23:33:02.157Z,9.2
2023-03-29T23:35:01.581Z,6.9
2023-03-29T23:37:01.657Z,8.6
2023-03-29T23:39:01.631Z,9.1
2023-03-29T23:41:04.977Z,7
2023-03-29T23:43:01.757Z,7.9
2023-03-29T23:45:01.738Z,7.5
2023-03-29T23:47:01.783Z,8.1
2023-03-29T23:49:01.771Z,8.4
2023-03-29T23:51:02.635Z,8.5
2023-03-29T23:53:01.847Z,8.2
2023-03-29T23:55:01.875Z,8
2023-03-29T23:57:01.906Z,7.5
2023-03-29T23:59:01.758Z,10
